Evanston, WY

12:30 AM MST on January 22, 2017 (GMT -0700)
Evanston-Uinta County Burns | | Change Station
Active Advisory: Winter Storm Watch

Elev 7162 ft 41.27 °N, 111.03 °W | Updated 37 minutes ago

Overcast
Overcast
17 °F
Feels Like 8 °F
N
7
Wind Variable Wind from SW

Today
High -- | Low -- °F
--% Chance of Precip.
Yesterday
High -- | Low -- °F
Precip. -- in
Pressure 30.01 in
Visibility 10.0 miles
Clouds Few 1600 ft
Overcast 6000 ft
Windchill 8 °F
Dew Point 13 °F
Humidity 84%
Rainfall 0.00 in
Snow Depth Not available.
7:43 AM 5:28 PM
Waning Crescent, 28% visible
METAR KEVW 220653Z AUTO 23006KT 10SM FEW016 OVC060 M08/M11 A2988 RMK AO2 SLP162 T10831106 410391106
Pressure 30.01 in
Visibility 10.0 miles
Clouds Few 1600 ft
Overcast 6000 ft
Windchill 8 °F
Dew Point 13 °F
Humidity 84%
Rainfall 0.00 in
Snow Depth Not available.
7:43 AM 5:28 PM
Waning Crescent, 28% visible
METAR KEVW 220653Z AUTO 23006KT 10SM FEW016 OVC060 M08/M11 A2988 RMK AO2 SLP162 T10831106 410391106

Get Your Daily Forecast Email!

Thanks for signing up!

Be on the lookout for a verification email in your inbox.

You'll start receiving the daily forecast at 8 AM.

×

10-Day Weather Forecast

Almanac

Astronomy

Jan. 22, 2017 Rise Set
Actual Time
Civil Twilight
Nautical Twilight
Astronomical Twilight
Moon
Length of Visible Light
Length of Day
Tomorrow will be .
, % of the Moon is Illuminated

Today's Extremes

State Highs State Lows

Community

WunderPhotos

Upload Photos

1,962,540 photos uploaded!

WunderBlog® & News

Nearby

Air Quality

  Air Quality AQ Index Pollutant
Not available.

Snow Depth

Station Depth Elevation

Earthquake Activity

City Distance Mag. Time & Date
Minimum magnitude displayed is 2.5.

Coastal Water Temperatures

Place Temperature

Stations

Nearby Weather Stations

Station Location Temp. Windchill Dew Point Humidity Wind Precip. Elev Updated Type
                   

Watches & Warnings

Winter Storm Watch
Issued: 7:57 PM MST Jan. 21, 2017 – National Weather Service

... Winter Storm Watch remains in effect from Sunday morning
through Monday afternoon...

* affected area... southwest Wyoming.

* Snow accumulations... 4 to 8 inches.

* Timing... snow will develop by Sunday afternoon... then
continue... heavy at times... through Monday afternoon before
decreasing.

* Winds... southwest winds 15 to 25 mph with gusts over 30 mph
Sunday into Sunday night.

* Impacts... significant travel impacts are anticipated across
southwest Wyoming Sunday through Monday.

Precautionary/preparedness actions...

A Winter Storm Watch means there is a potential for significant
snow... sleet... or ice accumulations that may impact travel.
Continue to monitor the latest forecasts.